createdAt,value
2023-01-22T00:57:42.319Z,1.50
2023-01-22T01:00:09.869Z,1.68
2023-01-22T01:02:59.667Z,1.70
2023-01-22T01:05:26.656Z,1.74
2023-01-22T01:07:53.323Z,1.77
2023-01-22T01:10:20.345Z,1.78
2023-01-22T01:12:47.308Z,1.77
2023-01-22T01:15:13.944Z,1.77
2023-01-22T01:17:40.608Z,1.79
2023-01-22T01:20:07.981Z,1.79
2023-01-22T01:22:34.758Z,1.79
2023-01-22T01:25:01.644Z,1.80
2023-01-22T01:27:31.732Z,1.79
2023-01-22T01:29:58.743Z,1.77
2023-01-22T01:32:25.560Z,1.75
2023-01-22T01:34:52.217Z,1.74
2023-01-22T01:37:18.848Z,1.72
2023-01-22T01:39:45.795Z,1.72
2023-01-22T01:42:13.972Z,1.74
2023-01-22T01:44:40.658Z,1.73
2023-01-22T01:47:11.804Z,1.74
2023-01-22T01:49:50.899Z,1.74
2023-01-22T01:52:18.240Z,1.75
2023-01-22T01:54:46.343Z,1.75
2023-01-22T01:57:15.093Z,1.75
2023-01-22T01:59:42.074Z,1.74
2023-01-22T02:02:08.971Z,1.74
2023-01-22T02:04:35.655Z,1.72
2023-01-22T02:07:04.415Z,1.71
2023-01-22T02:09:32.019Z,1.73
2023-01-22T02:11:58.722Z,1.74
2023-01-22T02:14:31.195Z,1.75
2023-01-22T02:17:20.829Z,1.75
2023-01-22T02:19:50.269Z,1.76
2023-01-22T02:22:21.629Z,1.77
2023-01-22T02:24:48.780Z,1.78
2023-01-22T02:27:15.626Z,1.79
2023-01-22T02:29:42.494Z,1.82
2023-01-22T02:32:10.226Z,1.83
2023-01-22T02:34:37.166Z,1.83
2023-01-22T02:37:03.932Z,1.83
2023-01-22T02:39:30.833Z,1.83
2023-01-22T02:41:58.275Z,1.82
2023-01-22T02:44:25.141Z,1.82
2023-01-22T02:46:51.932Z,1.84
2023-01-22T02:49:18.656Z,1.85
2023-01-22T02:51:45.622Z,1.87
2023-01-22T02:54:12.532Z,1.87
2023-01-22T02:56:39.317Z,1.87
2023-01-22T02:59:06.118Z,1.89
2023-01-22T03:01:33.214Z,1.91
2023-01-22T03:04:13.590Z,1.92
2023-01-22T03:06:42.609Z,1.94
2023-01-22T03:09:10.023Z,1.94
2023-01-22T03:11:37.657Z,1.97
2023-01-22T03:14:29.452Z,1.97
2023-01-22T03:17:14.789Z,1.98
2023-01-22T03:20:00.177Z,2.01
2023-01-22T03:22:27.130Z,2.03
2023-01-22T03:24:53.890Z,2.03
2023-01-22T03:27:24.195Z,2.03
2023-01-22T03:29:50.925Z,2.04
2023-01-22T03:32:18.877Z,2.05
2023-01-22T03:34:45.623Z,2.08
2023-01-22T03:37:15.428Z,2.09
2023-01-22T03:39:43.888Z,2.11
2023-01-22T03:42:14.828Z,2.12
2023-01-22T03:44:41.512Z,2.13
2023-01-22T03:47:08.539Z,2.15
2023-01-22T03:49:35.321Z,2.16
2023-01-22T03:52:03.864Z,2.18
2023-01-22T03:54:30.597Z,2.20
2023-01-22T03:56:57.774Z,2.20
2023-01-22T03:59:28.787Z,2.21
2023-01-22T04:01:55.807Z,2.22
2023-01-22T04:04:22.505Z,2.22
2023-01-22T04:06:49.989Z,2.23
2023-01-22T04:09:16.885Z,2.25
2023-01-22T04:11:47.470Z,2.24
2023-01-22T04:14:15.535Z,2.24
2023-01-22T04:16:59.797Z,2.23
2023-01-22T04:19:39.613Z,2.23
2023-01-22T04:22:18.802Z,2.24
2023-01-22T04:24:47.801Z,2.25
2023-01-22T04:27:14.495Z,2.24
2023-01-22T04:29:41.329Z,2.23
2023-01-22T04:32:08.365Z,2.24
2023-01-22T04:35:00.372Z,2.24
2023-01-22T04:37:37.419Z,2.24
2023-01-22T04:40:05.684Z,2.24
2023-01-22T04:42:34.873Z,2.24
2023-01-22T04:45:02.795Z,2.23
2023-01-22T04:47:30.555Z,2.23
2023-01-22T04:49:57.264Z,2.22
2023-01-22T04:52:23.932Z,2.23
2023-01-22T04:54:52.091Z,2.23
2023-01-22T04:57:19.015Z,2.24
2023-01-22T04:59:46.424Z,2.26
2023-01-22T05:02:13.298Z,2.25
2023-01-22T05:04:40.129Z,2.23
2023-01-22T05:07:07.747Z,2.23
2023-01-22T05:09:34.389Z,2.23
2023-01-22T05:12:01.423Z,2.24
2023-01-22T05:14:32.839Z,2.23
2023-01-22T05:17:01.103Z,2.23
2023-01-22T05:19:27.755Z,2.20
2023-01-22T05:21:55.099Z,2.18
2023-01-22T05:24:21.770Z,2.17
2023-01-22T05:26:49.304Z,2.17
2023-01-22T05:29:26.069Z,2.17
2023-01-22T05:32:15.847Z,2.16
2023-01-22T05:34:47.805Z,2.15
2023-01-22T05:37:14.548Z,2.12
2023-01-22T05:39:41.292Z,2.11
2023-01-22T05:42:13.839Z,2.11
2023-01-22T05:44:41.524Z,2.14
2023-01-22T05:47:09.510Z,2.15
2023-01-22T05:49:50.209Z,2.15
2023-01-22T05:52:16.936Z,2.13
2023-01-22T05:54:44.734Z,2.11
2023-01-22T05:57:11.851Z,2.08
2023-01-22T05:59:39.110Z,2.07
2023-01-22T06:02:07.693Z,2.06
2023-01-22T06:04:36.576Z,2.06
2023-01-22T06:07:07.572Z,2.06
2023-01-22T06:09:34.801Z,2.05
2023-01-22T06:12:01.517Z,2.06
2023-01-22T06:14:28.263Z,2.07
2023-01-22T06:16:56.590Z,2.08
2023-01-22T06:19:32.248Z,2.08
2023-01-22T06:21:58.979Z,2.07
2023-01-22T06:24:31.133Z,2.07
2023-01-22T06:26:58.382Z,2.07
2023-01-22T06:29:31.462Z,2.04
2023-01-22T06:31:58.358Z,2.02
2023-01-22T06:34:26.181Z,2.00
2023-01-22T06:36:52.847Z,2.00
2023-01-22T06:39:19.935Z,1.99
2023-01-22T06:41:57.381Z,1.96
2023-01-22T06:44:24.078Z,1.95
2023-01-22T06:46:51.803Z,1.95
2023-01-22T06:49:23.082Z,1.96
2023-01-22T06:51:49.924Z,1.94
2023-01-22T06:54:17.764Z,1.95
2023-01-22T06:56:44.440Z,1.96
2023-01-22T06:59:12.327Z,1.98
2023-01-22T07:01:39.534Z,1.98
2023-01-22T07:04:06.349Z,1.99
2023-01-22T07:06:33.112Z,2.00
2023-01-22T07:08:59.753Z,2.03
2023-01-22T07:11:26.640Z,2.03
2023-01-22T07:13:53.400Z,2.04
2023-01-22T07:16:20.242Z,2.07
2023-01-22T07:18:46.980Z,2.11
2023-01-22T07:21:13.832Z,2.14
2023-01-22T07:23:42.051Z,2.18
2023-01-22T07:26:08.843Z,2.19
2023-01-22T07:28:35.716Z,2.20
2023-01-22T07:31:03.781Z,2.21
2023-01-22T07:33:30.572Z,2.22
2023-01-22T07:35:57.416Z,2.26
2023-01-22T07:38:24.558Z,2.30
2023-01-22T07:40:51.400Z,2.32
2023-01-22T07:43:18.164Z,2.32
2023-01-22T07:45:45.014Z,2.32
2023-01-22T07:48:12.624Z,2.33
2023-01-22T07:50:40.336Z,2.35
2023-01-22T07:53:07.928Z,2.37
2023-01-22T07:55:34.721Z,2.37
2023-01-22T07:58:03.824Z,2.34
2023-01-22T08:00:31.185Z,2.34
2023-01-22T08:02:57.923Z,2.37
2023-01-22T08:05:24.743Z,2.40
2023-01-22T08:07:51.508Z,2.43
2023-01-22T08:10:18.633Z,2.44
2023-01-22T08:12:46.631Z,2.42
2023-01-22T08:15:13.573Z,2.44
2023-01-22T08:17:40.423Z,2.45
2023-01-22T08:20:07.816Z,2.44
2023-01-22T08:22:34.465Z,2.42
2023-01-22T08:25:01.116Z,2.43
2023-01-22T08:27:27.792Z,2.46
2023-01-22T08:29:55.290Z,2.47
2023-01-22T08:32:22.140Z,2.49
2023-01-22T08:34:48.864Z,2.49
2023-01-22T08:37:15.898Z,2.48
2023-01-22T08:39:42.526Z,2.47
2023-01-22T08:42:09.191Z,2.47
2023-01-22T08:44:35.834Z,2.48
2023-01-22T08:47:02.514Z,2.48
2023-01-22T08:49:30.925Z,2.51
2023-01-22T08:51:57.735Z,2.54
2023-01-22T08:54:24.559Z,2.57
2023-01-22T08:56:51.321Z,2.56
2023-01-22T08:59:18.050Z,2.60
2023-01-22T09:01:44.695Z,2.63
2023-01-22T09:04:11.445Z,2.65
2023-01-22T09:06:38.434Z,2.66
2023-01-22T09:09:06.072Z,2.64
2023-01-22T09:11:32.927Z,2.64
2023-01-22T09:13:59.732Z,2.65
2023-01-22T09:16:27.395Z,2.66
2023-01-22T09:18:54.074Z,2.67
2023-01-22T09:21:20.831Z,2.69
2023-01-22T09:23:47.473Z,2.70
2023-01-22T09:26:14.206Z,2.69
2023-01-22T09:28:40.904Z,2.68
2023-01-22T09:31:07.874Z,2.69
2023-01-22T09:33:34.514Z,2.69
2023-01-22T09:36:08.407Z,2.70
2023-01-22T09:38:35.039Z,2.73
2023-01-22T09:41:02.965Z,2.76
2023-01-22T09:43:32.253Z,2.82
2023-01-22T09:46:05.117Z,2.88
2023-01-22T09:48:37.304Z,2.93
2023-01-22T09:51:04.366Z,2.93
2023-01-22T09:53:37.166Z,2.92
2023-01-22T09:56:08.012Z,2.95
2023-01-22T09:58:34.691Z,2.98
2023-01-22T10:01:07.528Z,2.98
2023-01-22T10:03:53.819Z,2.98
2023-01-22T10:06:22.911Z,3.00
2023-01-22T10:09:08.668Z,3.05
2023-01-22T10:11:36.788Z,3.10
2023-01-22T10:14:03.498Z,3.13
2023-01-22T10:16:30.244Z,3.14
2023-01-22T10:19:26.463Z,3.14
2023-01-22T10:21:59.889Z,3.11
2023-01-22T10:24:26.795Z,3.08
2023-01-22T10:26:54.747Z,3.03
2023-01-22T10:29:26.379Z,2.96
2023-01-22T10:31:55.356Z,2.89
2023-01-22T10:34:30.875Z,2.85
2023-01-22T10:37:00.767Z,2.81
2023-01-22T10:39:27.396Z,2.80
2023-01-22T10:42:00.828Z,2.78
2023-01-22T10:44:27.798Z,2.77
2023-01-22T10:46:55.014Z,2.75
2023-01-22T10:49:26.244Z,2.73
2023-01-22T10:51:56.920Z,2.72
2023-01-22T10:54:30.127Z,2.72
2023-01-22T10:57:22.901Z,2.69
2023-01-22T10:59:51.138Z,2.65
2023-01-22T11:02:22.988Z,2.62
2023-01-22T11:04:49.783Z,2.62
2023-01-22T11:07:20.162Z,2.66
2023-01-22T11:09:49.759Z,2.72
2023-01-22T11:12:21.735Z,2.78
2023-01-22T11:14:51.589Z,2.82
2023-01-22T11:17:22.279Z,2.89
2023-01-22T11:19:55.790Z,2.94
2023-01-22T11:22:26.244Z,2.93
2023-01-22T11:24:53.162Z,2.94
2023-01-22T11:27:43.019Z,2.92
2023-01-22T11:30:21.318Z,2.91
2023-01-22T11:33:01.039Z,2.91
2023-01-22T11:35:58.616Z,2.90
2023-01-22T11:38:36.376Z,2.84
2023-01-22T11:41:18.267Z,2.79
2023-01-22T11:44:06.885Z,2.76
2023-01-22T11:46:54.996Z,2.74
2023-01-22T11:49:48.533Z,2.70
2023-01-22T11:52:22.701Z,2.70
2023-01-22T11:55:01.250Z,2.68
2023-01-22T11:57:34.100Z,2.67
2023-01-22T12:00:04.892Z,2.68
2023-01-22T12:02:55.516Z,2.69
2023-01-22T12:05:32.100Z,2.70
2023-01-22T12:08:12.987Z,2.72
2023-01-22T12:10:39.788Z,2.71
2023-01-22T12:13:18.937Z,2.66
2023-01-22T12:16:07.096Z,2.60
2023-01-22T12:19:01.764Z,2.52
2023-01-22T12:22:02.866Z,2.45
2023-01-22T12:24:33.575Z,2.36
2023-01-22T12:27:03.391Z,2.32
2023-01-22T12:29:38.589Z,2.29
2023-01-22T12:32:09.249Z,2.25
2023-01-22T12:34:50.783Z,2.22
2023-01-22T12:37:20.325Z,2.18
2023-01-22T12:40:19.124Z,2.12
2023-01-22T12:43:12.112Z,2.06
2023-01-22T12:45:47.007Z,2.01
2023-01-22T12:48:31.294Z,1.98
2023-01-22T12:50:58.345Z,1.93
2023-01-22T12:53:35.844Z,1.88
2023-01-22T12:56:07.466Z,1.82
2023-01-22T12:58:38.752Z,1.74
2023-01-22T13:01:11.727Z,1.69
2023-01-22T13:03:39.601Z,1.65
2023-01-22T13:06:18.637Z,1.61
2023-01-22T13:08:45.557Z,1.61
2023-01-22T13:11:14.004Z,1.63
2023-01-22T13:13:51.037Z,1.58
2023-01-22T13:16:20.310Z,1.54
2023-01-22T13:18:55.038Z,1.50
2023-01-22T13:21:29.826Z,1.46
2023-01-22T13:24:05.018Z,1.43
2023-01-22T13:26:33.993Z,1.41
2023-01-22T13:29:27.186Z,1.38
2023-01-22T13:32:05.225Z,1.35
2023-01-22T13:34:33.264Z,1.32
2023-01-22T13:36:59.977Z,1.28
2023-01-22T13:39:30.335Z,1.25
2023-01-22T13:42:01.067Z,1.24
2023-01-22T13:44:35.835Z,1.24
2023-01-22T13:47:02.632Z,1.22
2023-01-22T14:54:02.868Z,0.42
2023-01-22T14:56:29.547Z,0.53
2023-01-22T14:58:56.314Z,0.49
2023-01-22T16:12:03.741Z,-0.22
2023-01-22T16:14:31.849Z,-0.22
2023-01-22T16:16:58.595Z,-0.20
2023-01-22T16:19:25.267Z,-0.20
2023-01-22T16:21:53.175Z,-0.19
2023-01-22T16:24:19.819Z,-0.20
2023-01-22T16:26:46.534Z,-0.21
2023-01-22T16:29:13.412Z,-0.25
2023-01-22T16:31:40.161Z,-0.28
2023-01-22T16:34:12.147Z,-0.30
2023-01-22T16:36:39.020Z,-0.34
2023-01-22T16:39:06.061Z,-0.36
2023-01-22T16:41:34.088Z,-0.40
2023-01-22T16:44:05.846Z,-0.43
2023-01-22T16:46:33.014Z,-0.43
2023-01-22T16:49:04.609Z,-0.41
2023-01-22T16:51:36.748Z,-0.39
2023-01-22T16:54:05.006Z,-0.36
2023-01-22T16:56:32.622Z,-0.36
2023-01-22T16:58:59.895Z,-0.40
2023-01-22T17:01:28.434Z,-0.46
2023-01-22T17:03:55.381Z,-0.51
2023-01-22T17:06:23.469Z,-0.57
2023-01-22T17:08:51.032Z,-0.59
2023-01-22T17:11:17.914Z,-0.61
2023-01-22T17:13:44.959Z,-0.63
2023-01-22T17:16:11.876Z,-0.68
2023-01-22T17:18:38.915Z,-0.70
2023-01-22T17:21:06.798Z,-0.72
2023-01-22T17:23:33.743Z,-0.74
2023-01-22T17:26:05.207Z,-0.73
2023-01-22T17:28:31.997Z,-0.73
2023-01-22T17:30:58.763Z,-0.72
2023-01-22T17:33:25.663Z,-0.73
2023-01-22T17:35:57.894Z,-0.72
2023-01-22T17:38:24.965Z,-0.71
2023-01-22T17:40:51.666Z,-0.69
2023-01-22T17:43:18.319Z,-0.66
2023-01-22T17:45:45.197Z,-0.64
2023-01-22T17:48:11.898Z,-0.67
2023-01-22T17:50:38.615Z,-0.72
2023-01-22T17:53:05.390Z,-0.76
2023-01-22T17:55:32.734Z,-0.80
2023-01-22T17:57:59.864Z,-0.81
2023-01-22T18:00:26.546Z,-0.82
2023-01-22T18:02:53.225Z,-0.81
2023-01-22T18:05:20.440Z,-0.82
2023-01-22T18:07:47.338Z,-0.84
2023-01-22T18:10:14.073Z,-0.85
2023-01-22T18:12:40.773Z,-0.86
2023-01-22T18:15:08.506Z,-0.86
2023-01-22T18:17:35.269Z,-0.86
2023-01-22T18:20:03.489Z,-0.85
2023-01-22T18:22:30.582Z,-0.84
2023-01-22T18:24:59.149Z,-0.86
2023-01-22T18:27:25.942Z,-0.89
2023-01-22T18:29:52.647Z,-0.91
2023-01-22T18:32:19.664Z,-0.92
2023-01-22T18:34:46.325Z,-0.91
2023-01-22T18:37:13.212Z,-0.89
2023-01-22T18:39:40.777Z,-0.85
2023-01-22T18:42:07.549Z,-0.84
2023-01-22T18:44:34.291Z,-0.86
2023-01-22T18:47:01.769Z,-0.91
2023-01-22T18:49:29.086Z,-0.95
2023-01-22T18:51:59.249Z,-0.96
2023-01-22T18:54:26.092Z,-0.96
2023-01-22T18:56:52.766Z,-0.96
2023-01-22T18:59:19.495Z,-0.96
2023-01-22T19:01:51.384Z,-0.95
2023-01-22T19:04:21.895Z,-0.93
2023-01-22T19:06:52.880Z,-0.92
2023-01-22T19:09:20.229Z,-0.91
2023-01-22T19:11:47.705Z,-0.91
2023-01-22T19:14:16.498Z,-0.89
2023-01-22T19:16:44.901Z,-0.88
2023-01-22T19:19:13.512Z,-0.89
2023-01-22T19:21:41.352Z,-0.89
2023-01-22T19:24:08.852Z,-0.85
2023-01-22T19:26:36.491Z,-0.81
2023-01-22T19:29:05.751Z,-0.80
2023-01-22T19:31:34.204Z,-0.80
2023-01-22T19:34:01.333Z,-0.81
2023-01-22T19:36:29.664Z,-0.81
2023-01-22T19:38:57.040Z,-0.81
2023-01-22T19:41:24.373Z,-0.84
2023-01-22T19:43:52.547Z,-0.87
2023-01-22T19:46:19.534Z,-0.93
2023-01-22T19:48:46.309Z,-0.96
2023-01-22T19:51:14.840Z,-1.00
2023-01-22T19:53:41.706Z,-1.06
2023-01-22T19:56:35.347Z,-1.11
2023-01-22T19:59:05.998Z,-1.16
2023-01-22T20:01:33.660Z,-1.18
2023-01-22T20:04:00.663Z,-1.21
2023-01-22T20:06:28.195Z,-1.24
2023-01-22T20:08:55.259Z,-1.21
2023-01-22T20:11:21.902Z,-1.20
2023-01-22T20:13:48.962Z,-1.21
2023-01-22T20:16:20.413Z,-1.25
2023-01-22T20:18:47.838Z,-1.27
2023-01-22T20:21:15.504Z,-1.28
2023-01-22T20:23:42.218Z,-1.31
2023-01-22T20:26:09.711Z,-1.35
2023-01-22T20:28:36.758Z,-1.39
2023-01-22T20:31:04.980Z,-1.39
2023-01-22T20:33:31.923Z,-1.38
2023-01-22T20:36:06.967Z,-1.37
2023-01-22T20:38:33.843Z,-1.36
2023-01-22T20:41:01.935Z,-1.34
2023-01-22T20:43:28.888Z,-1.32
2023-01-22T20:46:00.787Z,-1.29
2023-01-22T20:48:28.641Z,-1.28
2023-01-22T20:50:55.594Z,-1.30
2023-01-22T20:53:22.910Z,-1.30
2023-01-22T20:56:04.103Z,-1.31
2023-01-22T20:58:31.092Z,-1.31
2023-01-22T21:01:14.603Z,-1.33
2023-01-22T21:03:42.215Z,-1.35
2023-01-22T21:06:14.356Z,-1.35
2023-01-22T21:08:41.838Z,-1.36
2023-01-22T21:11:10.739Z,-1.38
2023-01-22T21:13:37.544Z,-1.42
2023-01-22T21:16:12.449Z,-1.43
2023-01-22T21:18:44.418Z,-1.43
2023-01-22T21:21:12.653Z,-1.44
2023-01-22T21:23:46.504Z,-1.43
2023-01-22T21:26:15.624Z,-1.42
2023-01-22T21:28:43.488Z,-1.42
2023-01-22T21:31:15.054Z,-1.43
2023-01-22T21:33:42.108Z,-1.44
2023-01-22T21:36:09.209Z,-1.44
2023-01-22T21:38:36.201Z,-1.43
2023-01-22T21:41:05.112Z,-1.40
2023-01-22T21:43:50.918Z,-1.37
2023-01-22T21:46:25.184Z,-1.34
2023-01-22T21:48:53.473Z,-1.31
2023-01-22T21:51:20.305Z,-1.33
2023-01-22T21:53:47.004Z,-1.34
2023-01-22T21:56:13.700Z,-1.31
2023-01-22T21:58:45.102Z,-1.30
